Time,TemperatureF,DewpointF,PressureIn,WindDirection,WindDirectionDegrees,WindSpeedMPH,WindSpeedGustMPH,Humidity,HourlyPrecipIn,Conditions,Clouds,dailyrainin,SolarRadiationWatts/m^2,SoftwareType,DateUTC
2013-07-24 00:01:00,54.3,44.7,29.97,NE,38,0.0,0.0,70,0.00,CLR,,0.00,0.0,WeatherDisplay:10.37,2013-07-24 05:01:00,
2013-07-24 00:06:00,54.1,44.6,29.97,NE,38,0.0,0.0,70,0.00,CLR,,0.00,0.0,WeatherDisplay:10.37,2013-07-24 05:06:00,
2013-07-24 00:11:00,54.0,44.4,29.97,NE,38,0.0,0.0,70,0.00,CLR,,0.00,0.0,WeatherDisplay:10.37,2013-07-24 05:11:00,
2013-07-24 00:16:00,54.0,44.8,30.00,NE,38,0.0,0.0,71,0.00,CLR,,0.00,0.0,WeatherDisplay:10.37,2013-07-24 05:16:00,
2013-07-24 00:21:00,53.6,44.4,30.00,NE,38,0.0,0.0,71,0.00,CLR,,0.00,0.0,WeatherDisplay:10.37,2013-07-24 05:21:00,
2013-07-24 00:26:00,53.2,44.1,30.00,NE,38,0.0,0.0,71,0.00,CLR,,0.00,0.0,WeatherDisplay:10.37,2013-07-24 05:26:00,
2013-07-24 00:31:00,52.9,44.1,30.00,NE,38,0.0,0.0,72,0.00,CLR,,0.00,0.0,WeatherDisplay:10.37,2013-07-24 05:31:00,
2013-07-24 00:36:00,52.5,43.8,30.00,NE,38,0.0,0.0,72,0.00,CLR,,0.00,0.0,WeatherDisplay:10.37,2013-07-24 05:36:00,
2013-07-24 00:41:00,52.2,43.8,30.00,NE,38,0.0,0.0,73,0.00,CLR,,0.00,0.0,WeatherDisplay:10.37,2013-07-24 05:41:00,
2013-07-24 00:46:00,51.8,43.4,30.00,NE,38,0.0,0.0,73,0.00,CLR,,0.00,0.0,WeatherDisplay:10.37,2013-07-24 05:46:00,
2013-07-24 00:51:00,51.4,43.4,30.00,NE,38,0.0,0.0,74,0.00,CLR,,0.00,0.0,WeatherDisplay:10.37,2013-07-24 05:51:00,
2013-07-24 00:56:00,51.3,43.6,30.00,NE,38,0.0,0.0,75,0.00,CLR,,0.00,0.0,WeatherDisplay:10.37,2013-07-24 05:56:00,
2013-07-24 01:01:00,51.1,43.8,30.00,NE,38,0.0,0.0,76,0.00,CLR,,0.00,0.0,WeatherDisplay:10.37,2013-07-24 06:01:00,
2013-07-24 01:06:00,51.1,43.8,30.00,NE,38,0.0,0.0,76,0.00,CLR,,0.00,0.0,WeatherDisplay:10.37,2013-07-24 06:06:00,
2013-07-24 01:11:00,50.7,43.8,30.00,NE,38,0.0,0.0,77,0.00,CLR,,0.00,0.0,WeatherDisplay:10.37,2013-07-24 06:11:00,
2013-07-24 01:16:00,50.5,43.6,30.00,NE,38,0.0,0.0,77,0.00,CLR,,0.00,0.0,WeatherDisplay:10.37,2013-07-24 06:16:00,
2013-07-24 01:21:00,50.5,43.9,30.00,NE,38,0.0,0.0,78,0.00,CLR,,0.00,0.0,WeatherDisplay:10.37,2013-07-24 06:21:00,
2013-07-24 01:26:00,50.4,43.8,30.00,NE,38,0.0,0.0,78,0.00,CLR,,0.00,0.0,WeatherDisplay:10.37,2013-07-24 06:26:00,
2013-07-24 01:31:00,50.4,44.1,30.00,NE,38,0.0,0.0,79,0.00,CLR,,0.00,0.0,WeatherDisplay:10.37,2013-07-24 06:31:00,
2013-07-24 01:36:00,50.2,43.9,30.00,NE,38,0.0,0.0,79,0.00,CLR,,0.00,0.0,WeatherDisplay:10.37,2013-07-24 06:36:00,
2013-07-24 01:41:00,50.2,43.9,30.00,NE,38,0.0,0.0,79,0.00,CLR,,0.00,0.0,WeatherDisplay:10.37,2013-07-24 06:41:00,
2013-07-24 01:47:00,50.2,44.2,30.00,NE,38,0.0,0.0,80,0.00,CLR,,0.00,0.0,WeatherDisplay:10.37,2013-07-24 06:47:00,
2013-07-24 01:52:00,50.2,44.6,30.00,NE,38,0.0,0.0,81,0.00,CLR,,0.00,0.0,WeatherDisplay:10.37,2013-07-24 06:52:00,
2013-07-24 01:57:00,50.2,44.6,30.00,NE,38,0.0,0.0,81,0.00,CLR,,0.00,0.0,WeatherDisplay:10.37,2013-07-24 06:57:00,
2013-07-24 02:02:00,50.4,45.1,30.00,NE,38,0.0,0.0,82,0.00,CLR,,0.00,0.0,WeatherDisplay:10.37,2013-07-24 07:02:00,
2013-07-24 02:07:00,50.5,45.6,30.00,NE,38,0.0,0.0,83,0.00,CLR,,0.00,0.0,WeatherDisplay:10.37,2013-07-24 07:07:00,
2013-07-24 02:12:00,50.7,45.7,30.00,NE,38,0.0,0.0,83,0.00,CLR,,0.00,0.0,WeatherDisplay:10.37,2013-07-24 07:12:00,
2013-07-24 02:17:00,50.9,45.9,30.00,NE,38,0.0,0.0,83,0.00,CLR,,0.00,0.0,WeatherDisplay:10.37,2013-07-24 07:17:00,
2013-07-24 02:22:00,51.1,46.1,30.00,NE,38,0.0,0.0,83,0.00,CLR,,0.00,0.0,WeatherDisplay:10.37,2013-07-24 07:22:00,
2013-07-24 02:27:00,51.1,46.1,30.00,NE,38,0.0,0.0,83,0.00,CLR,,0.00,0.0,WeatherDisplay:10.37,2013-07-24 07:27:00,
2013-07-24 02:32:00,51.3,46.3,30.00,NE,38,0.0,0.0,83,0.00,CLR,,0.00,0.0,WeatherDisplay:10.37,2013-07-24 07:32:00,
2013-07-24 02:37:00,51.4,46.4,30.00,NE,38,0.0,0.0,83,0.00,CLR,,0.00,0.0,WeatherDisplay:10.37,2013-07-24 07:37:00,
2013-07-24 02:42:00,51.6,46.3,30.00,NE,38,0.0,0.0,82,0.00,CLR,,0.00,0.0,WeatherDisplay:10.37,2013-07-24 07:42:00,
2013-07-24 02:47:00,51.8,46.5,30.00,NE,38,0.0,0.0,82,0.00,CLR,,0.00,0.0,WeatherDisplay:10.37,2013-07-24 07:47:00,
2013-07-24 02:52:00,52.0,46.7,30.00,NE,38,0.0,0.0,82,0.00,CLR,,0.00,0.0,WeatherDisplay:10.37,2013-07-24 07:52:00,
2013-07-24 02:57:00,52.2,46.5,30.00,NE,38,0.0,0.0,81,0.00,CLR,,0.00,0.0,WeatherDisplay:10.37,2013-07-24 07:57:00,
2013-07-24 03:02:00,52.2,46.5,30.00,NE,38,0.0,0.0,81,0.00,CLR,,0.00,0.0,WeatherDisplay:10.37,2013-07-24 08:02:00,
2013-07-24 03:07:00,52.0,46.3,30.00,NE,38,0.0,0.0,81,0.00,CLR,,0.00,0.0,WeatherDisplay:10.37,2013-07-24 08:07:00,
2013-07-24 03:12:00,52.0,46.0,30.00,NE,38,0.0,0.0,80,0.00,CLR,,0.00,0.0,WeatherDisplay:10.37,2013-07-24 08:12:00,
2013-07-24 03:17:00,51.8,45.8,30.00,NE,38,0.0,0.0,80,0.00,CLR,,0.00,0.0,WeatherDisplay:10.37,2013-07-24 08:17:00,
2013-07-24 03:22:00,51.8,45.8,30.00,NE,38,0.0,0.0,80,0.00,CLR,,0.00,0.0,WeatherDisplay:10.37,2013-07-24 08:22:00,
2013-07-24 03:27:00,51.8,46.2,30.00,NE,38,0.0,0.0,81,0.00,CLR,,0.00,0.0,WeatherDisplay:10.37,2013-07-24 08:27:00,
2013-07-24 03:32:00,52.0,46.3,30.00,NE,38,0.0,0.0,81,0.00,CLR,,0.00,0.0,WeatherDisplay:10.37,2013-07-24 08:32:00,
2013-07-24 03:37:00,52.2,46.5,30.00,NE,38,0.0,0.0,81,0.00,CLR,,0.00,0.0,WeatherDisplay:10.37,2013-07-24 08:37:00,
2013-07-24 03:42:00,52.2,46.2,30.00,NE,38,0.0,0.0,80,0.00,CLR,,0.00,0.0,WeatherDisplay:10.37,2013-07-24 08:42:00,
2013-07-24 03:47:00,52.3,46.4,30.00,NE,38,0.0,0.0,80,0.00,CLR,,0.00,0.0,WeatherDisplay:10.37,2013-07-24 08:47:00,
2013-07-24 03:52:00,52.3,46.0,30.00,NE,38,0.0,0.0,79,0.00,CLR,,0.00,0.0,WeatherDisplay:10.37,2013-07-24 08:52:00,
2013-07-24 03:57:00,52.3,46.0,30.00,NE,38,0.0,0.0,79,0.00,CLR,,0.00,0.0,WeatherDisplay:10.37,2013-07-24 08:57:00,
2013-07-24 04:02:00,52.3,46.0,30.00,NE,38,0.0,0.0,79,0.00,CLR,,0.00,0.0,WeatherDisplay:10.37,2013-07-24 09:02:00,
2013-07-24 04:07:00,52.0,45.7,30.00,NE,38,0.0,0.0,79,0.00,CLR,,0.00,0.0,WeatherDisplay:10.37,2013-07-24 09:07:00,
2013-07-24 04:12:00,51.8,45.5,30.00,NE,38,0.0,0.0,79,0.00,CLR,,0.00,0.0,WeatherDisplay:10.37,2013-07-24 09:12:00,
2013-07-24 04:17:00,51.4,45.5,30.00,NE,38,0.0,0.0,80,0.00,CLR,,0.00,0.0,WeatherDisplay:10.37,2013-07-24 09:17:00,
2013-07-24 04:22:00,51.1,45.1,30.00,NE,38,0.0,0.0,80,0.00,CLR,,0.00,0.0,WeatherDisplay:10.37,2013-07-24 09:22:00,
2013-07-24 04:27:00,50.7,44.8,30.00,NE,38,0.0,0.0,80,0.00,CLR,,0.00,0.0,WeatherDisplay:10.37,2013-07-24 09:27:00,
2013-07-24 04:32:00,50.4,44.7,30.03,NE,38,0.0,0.0,81,0.00,CLR,,0.00,0.0,WeatherDisplay:10.37,2013-07-24 09:32:00,
2013-07-24 04:37:00,49.8,44.2,30.03,NE,38,0.0,0.0,81,0.00,CLR,,0.00,0.0,WeatherDisplay:10.37,2013-07-24 09:37:00,
2013-07-24 04:42:00,49.6,44.7,30.03,NE,38,0.0,0.0,83,0.00,CLR,,0.00,0.0,WeatherDisplay:10.37,2013-07-24 09:42:00,
2013-07-24 04:47:00,49.3,44.6,30.03,NE,38,0.0,0.0,84,0.00,CLR,,0.00,0.0,WeatherDisplay:10.37,2013-07-24 09:47:00,
2013-07-24 04:52:00,48.9,44.3,30.03,NE,38,0.0,0.0,84,0.00,CLR,,0.00,0.0,WeatherDisplay:10.37,2013-07-24 09:52:00,
2013-07-24 04:57:00,48.7,44.4,30.03,NE,38,0.0,0.0,85,0.00,CLR,,0.00,0.0,WeatherDisplay:10.37,2013-07-24 09:57:00,
2013-07-24 05:02:00,48.4,44.4,30.03,NE,38,0.0,0.0,86,0.00,CLR,,0.00,0.0,WeatherDisplay:10.37,2013-07-24 10:02:00,
2013-07-24 05:07:00,48.2,44.5,30.03,NE,38,0.0,0.0,87,0.00,CLR,,0.00,0.0,WeatherDisplay:10.37,2013-07-24 10:07:00,
2013-07-24 05:12:00,48.0,44.6,30.03,NE,38,0.0,0.0,88,0.00,CLR,,0.00,0.0,WeatherDisplay:10.37,2013-07-24 10:12:00,
2013-07-24 05:17:00,47.7,44.6,30.03,NE,38,0.0,0.0,89,0.00,CLR,,0.00,0.0,WeatherDisplay:10.37,2013-07-24 10:17:00,
2013-07-24 05:22:00,47.3,44.5,30.03,NE,38,0.0,0.0,90,0.00,CLR,,0.00,0.0,WeatherDisplay:10.37,2013-07-24 10:22:00,
2013-07-24 05:27:00,47.1,44.3,30.03,NE,38,0.0,0.0,90,0.00,CLR,,0.00,0.0,WeatherDisplay:10.37,2013-07-24 10:27:00,
2013-07-24 05:32:00,47.1,44.6,30.03,NE,38,0.0,0.0,91,0.00,CLR,,0.00,0.0,WeatherDisplay:10.37,2013-07-24 10:32:00,
2013-07-24 05:37:00,46.9,44.7,30.03,NE,38,0.0,0.0,92,0.00,CLR,,0.00,0.0,WeatherDisplay:10.37,2013-07-24 10:37:00,
2013-07-24 05:42:00,46.9,45.0,30.03,NE,38,0.0,0.0,93,0.00,CLR,,0.00,0.0,WeatherDisplay:10.37,2013-07-24 10:42:00,
2013-07-24 05:47:00,46.8,44.8,30.03,NE,38,0.0,0.0,93,0.00,CLR,,0.00,0.0,WeatherDisplay:10.37,2013-07-24 10:47:00,
2013-07-24 05:52:00,46.9,45.6,30.03,NE,38,0.0,0.0,95,0.00,CLR,,0.00,0.0,WeatherDisplay:10.37,2013-07-24 10:52:00,
2013-07-24 05:57:00,46.9,45.6,30.03,NE,38,0.0,0.0,95,0.00,CLR,,0.00,0.0,WeatherDisplay:10.37,2013-07-24 10:57:00,
2013-07-24 06:02:00,46.8,45.7,30.03,NE,38,0.0,0.0,96,0.00,CLR,,0.00,0.0,WeatherDisplay:10.37,2013-07-24 11:02:00,
2013-07-24 06:07:00,46.8,45.7,30.03,NE,38,0.0,0.0,96,0.00,CLR,,0.00,0.0,WeatherDisplay:10.37,2013-07-24 11:07:00,
2013-07-24 06:12:00,46.6,45.8,30.03,NE,38,0.0,0.0,97,0.00,CLR,,0.00,0.0,WeatherDisplay:10.37,2013-07-24 11:12:00,
2013-07-24 06:17:00,46.4,45.9,30.03,NE,38,0.0,0.0,98,0.00,CLR,,0.00,0.0,WeatherDisplay:10.37,2013-07-24 11:17:00,
2013-07-24 06:22:00,46.6,46.0,30.03,NE,38,0.0,0.0,98,0.00,CLR,,0.00,0.0,WeatherDisplay:10.37,2013-07-24 11:22:00,
2013-07-24 06:27:00,46.8,46.5,30.03,NE,38,0.0,0.0,99,0.00,CLR,,0.00,0.0,WeatherDisplay:10.37,2013-07-24 11:27:00,
2013-07-24 06:32:00,46.9,46.9,30.03,NE,38,0.0,0.0,100,0.00,CLR,,0.00,0.0,WeatherDisplay:10.37,2013-07-24 11:32:00,
2013-07-24 06:37:00,47.7,47.7,30.03,NE,38,0.0,0.0,100,0.00,CLR,,0.00,0.0,WeatherDisplay:10.37,2013-07-24 11:37:00,
2013-07-24 06:42:00,48.2,48.2,30.03,NE,38,0.0,0.0,100,0.00,CLR,,0.00,0.0,WeatherDisplay:10.37,2013-07-24 11:42:00,
2013-07-24 06:47:00,48.7,48.7,30.06,NE,38,0.0,0.0,100,0.00,CLR,,0.00,0.0,WeatherDisplay:10.37,2013-07-24 11:47:00,
2013-07-24 06:52:00,49.1,49.1,30.06,NE,38,0.0,0.0,100,0.00,CLR,,0.00,0.0,WeatherDisplay:10.37,2013-07-24 11:52:00,
2013-07-24 06:57:00,49.8,49.8,30.06,NE,38,0.0,0.0,100,0.00,CLR,,0.00,0.0,WeatherDisplay:10.37,2013-07-24 11:57:00,
2013-07-24 07:02:00,50.5,50.5,30.06,NE,38,0.0,0.0,100,0.00,CLR,,0.00,0.0,WeatherDisplay:10.37,2013-07-24 12:02:00,
2013-07-24 07:07:00,51.3,51.3,30.06,NE,38,0.0,0.0,100,0.00,CLR,,0.00,0.0,WeatherDisplay:10.37,2013-07-24 12:07:00,
2013-07-24 07:12:00,52.0,52.0,30.06,NE,38,0.0,0.0,100,0.00,CLR,,0.00,0.0,WeatherDisplay:10.37,2013-07-24 12:12:00,
2013-07-24 07:17:00,52.5,52.5,30.06,NE,38,0.0,0.0,100,0.00,CLR,,0.00,0.0,WeatherDisplay:10.37,2013-07-24 12:17:00,
2013-07-24 07:22:00,53.2,53.2,30.06,NE,38,0.0,0.0,100,0.00,CLR,,0.00,0.0,WeatherDisplay:10.37,2013-07-24 12:22:00,
2013-07-24 07:27:00,54.0,54.0,30.06,NE,38,0.0,0.0,100,0.00,CLR,,0.00,0.0,WeatherDisplay:10.37,2013-07-24 12:27:00,
2013-07-24 07:32:00,54.7,54.7,30.06,NE,38,0.0,0.0,100,0.00,CLR,,0.00,0.0,WeatherDisplay:10.37,2013-07-24 12:32:00,
2013-07-24 07:37:00,55.0,54.8,30.06,NE,38,0.0,0.0,99,0.00,CLR,,0.00,0.0,WeatherDisplay:10.37,2013-07-24 12:37:00,
2013-07-24 07:42:00,55.6,54.7,30.06,NE,38,0.0,0.0,97,0.00,CLR,,0.00,0.0,WeatherDisplay:10.37,2013-07-24 12:42:00,
2013-07-24 07:47:00,56.1,54.4,30.06,NE,38,0.0,0.0,94,0.00,CLR,,0.00,0.0,WeatherDisplay:10.37,2013-07-24 12:47:00,
2013-07-24 07:52:00,56.5,53.0,30.06,NE,38,0.0,0.0,88,0.00,CLR,,0.00,0.0,WeatherDisplay:10.37,2013-07-24 12:52:00,
2013-07-24 07:57:00,56.8,52.1,30.06,NE,38,0.0,0.0,84,0.00,CLR,,0.00,0.0,WeatherDisplay:10.37,2013-07-24 12:57:00,
2013-07-24 08:02:00,57.2,51.4,30.06,NE,38,0.0,0.0,81,0.00,CLR,,0.00,0.0,WeatherDisplay:10.37,2013-07-24 13:02:00,
2013-07-24 08:07:00,57.6,50.8,30.06,NE,38,0.0,0.0,78,0.00,CLR,,0.00,0.0,WeatherDisplay:10.37,2013-07-24 13:07:00,
2013-07-24 08:12:00,57.9,50.4,30.06,NE,38,0.0,0.0,76,0.00,CLR,,0.00,0.0,WeatherDisplay:10.37,2013-07-24 13:12:00,
2013-07-24 08:17:00,58.5,50.6,30.06,NE,38,0.0,0.0,75,0.00,CLR,,0.00,0.0,WeatherDisplay:10.37,2013-07-24 13:17:00,
2013-07-24 08:22:00,59.0,50.4,30.06,NE,38,0.0,0.0,73,0.00,CLR,,0.00,0.0,WeatherDisplay:10.37,2013-07-24 13:22:00,
2013-07-24 08:27:00,59.5,50.1,30.06,NE,38,0.0,0.0,71,0.00,CLR,,0.00,0.0,WeatherDisplay:10.37,2013-07-24 13:27:00,
2013-07-24 08:32:00,59.7,49.9,30.06,NE,38,0.0,0.0,70,0.00,CLR,,0.00,0.0,WeatherDisplay:10.37,2013-07-24 13:32:00,
2013-07-24 08:37:00,60.3,50.0,30.06,NE,38,0.0,0.0,69,0.00,CLR,,0.00,0.0,WeatherDisplay:10.37,2013-07-24 13:37:00,
2013-07-24 08:42:00,60.8,50.2,30.06,SSW,200,0.0,0.0,68,0.00,CLR,,0.00,0.0,WeatherDisplay:10.37,2013-07-24 13:42:00,
2013-07-24 08:47:00,61.3,48.6,30.06,NNE,14,0.0,0.0,63,0.00,CLR,,0.00,0.0,WeatherDisplay:10.37,2013-07-24 13:47:00,
2013-07-24 08:52:00,61.5,48.8,30.06,North,357,2.3,0.0,63,0.00,CLR,,0.00,0.0,WeatherDisplay:10.37,2013-07-24 13:52:00,
2013-07-24 08:57:00,61.9,49.1,30.06,SSW,212,3.5,0.0,63,0.00,CLR,,0.00,0.0,WeatherDisplay:10.37,2013-07-24 13:57:00,
2013-07-24 09:02:00,62.2,49.5,30.06,SW,218,0.0,0.0,63,0.00,CLR,,0.00,0.0,WeatherDisplay:10.37,2013-07-24 14:02:00,
2013-07-24 09:07:00,62.4,49.7,30.06,SSW,207,4.6,4.6,63,0.00,CLR,,0.00,0.0,WeatherDisplay:10.37,2013-07-24 14:07:00,
2013-07-24 09:12:00,62.4,50.1,30.06,SSW,198,2.3,0.0,64,0.00,CLR,,0.00,0.0,WeatherDisplay:10.37,2013-07-24 14:12:00,
2013-07-24 09:17:00,62.4,49.7,30.06,West,269,3.5,3.5,63,0.00,CLR,,0.00,0.0,WeatherDisplay:10.37,2013-07-24 14:17:00,
2013-07-24 09:22:00,62.4,49.2,30.06,South,189,4.6,4.6,62,0.00,CLR,,0.00,0.0,WeatherDisplay:10.37,2013-07-24 14:22:00,
2013-07-24 09:27:00,62.6,49.8,30.06,SSW,199,3.5,3.5,63,0.00,CLR,,0.00,0.0,WeatherDisplay:10.37,2013-07-24 14:27:00,
2013-07-24 09:32:00,62.8,49.6,30.06,South,186,3.5,3.5,62,0.00,CLR,,0.00,0.0,WeatherDisplay:10.37,2013-07-24 14:32:00,
2013-07-24 09:37:00,63.1,49.9,30.06,SSW,194,4.6,4.6,62,0.00,CLR,,0.00,0.0,WeatherDisplay:10.37,2013-07-24 14:37:00,
2013-07-24 09:42:00,63.5,49.8,30.06,SW,223,4.6,4.6,61,0.00,CLR,,0.00,0.0,WeatherDisplay:10.37,2013-07-24 14:42:00,
2013-07-24 09:47:00,63.7,49.1,30.06,SSE,156,0.0,0.0,59,0.00,CLR,,0.00,0.0,WeatherDisplay:10.37,2013-07-24 14:47:00,
2013-07-24 09:52:00,63.9,48.8,30.06,SE,139,5.8,5.8,58,0.00,CLR,,0.00,0.0,WeatherDisplay:10.37,2013-07-24 14:52:00,
2013-07-24 09:57:00,63.9,48.8,30.06,SSW,201,5.8,5.8,58,0.00,CLR,,0.00,0.0,WeatherDisplay:10.37,2013-07-24 14:57:00,
2013-07-24 10:02:00,64.0,49.0,30.06,SW,222,3.5,3.5,58,0.00,CLR,,0.00,0.0,WeatherDisplay:10.37,2013-07-24 15:02:00,
2013-07-24 10:07:00,64.2,49.1,30.06,SW,220,3.5,3.5,58,0.00,CLR,,0.00,0.0,WeatherDisplay:10.37,2013-07-24 15:07:00,
2013-07-24 10:12:00,64.8,49.6,30.06,SSW,197,2.9,2.9,58,0.00,CLR,,0.00,0.0,WeatherDisplay:10.37,2013-07-24 15:12:00,
2013-07-24 10:17:00,65.1,50.0,30.06,SW,235,3.5,3.5,58,0.00,CLR,,0.00,0.0,WeatherDisplay:10.37,2013-07-24 15:17:00,
2013-07-24 10:22:00,65.3,50.1,30.06,SSW,198,5.8,5.8,58,0.00,CLR,,0.00,0.0,WeatherDisplay:10.37,2013-07-24 15:22:00,
2013-07-24 10:27:00,65.5,50.3,30.06,SW,228,5.8,5.8,58,0.00,CLR,,0.00,0.0,WeatherDisplay:10.37,2013-07-24 15:27:00,
2013-07-24 10:32:00,65.7,50.0,30.06,South,188,5.8,0.0,57,0.00,CLR,,0.00,0.0,WeatherDisplay:10.37,2013-07-24 15:32:00,
2013-07-24 10:37:00,65.8,49.2,30.06,NNE,23,3.5,3.5,55,0.00,CLR,,0.00,0.0,WeatherDisplay:10.37,2013-07-24 15:37:00,
2013-07-24 10:42:00,66.2,48.6,30.06,NNE,28,5.8,5.8,53,0.00,CLR,,0.00,0.0,WeatherDisplay:10.37,2013-07-24 15:42:00,
2013-07-24 10:47:00,66.7,48.0,30.06,North,353,4.6,4.6,51,0.00,CLR,,0.00,0.0,WeatherDisplay:10.37,2013-07-24 15:47:00,
2013-07-24 10:52:00,67.6,48.3,30.06,NE,35,2.3,0.0,50,0.00,CLR,,0.00,0.0,WeatherDisplay:10.37,2013-07-24 15:52:00,
2013-07-24 10:57:00,68.7,49.3,30.06,North,2,4.6,0.0,50,0.00,CLR,,0.00,0.0,WeatherDisplay:10.37,2013-07-24 15:57:00,
2013-07-24 11:02:00,69.3,49.3,30.06,North,0,4.6,4.6,49,0.00,CLR,,0.00,0.0,WeatherDisplay:10.37,2013-07-24 16:02:00,
2013-07-24 11:07:00,69.1,49.1,30.06,NNW,341,2.3,0.0,49,0.00,CLR,,0.00,0.0,WeatherDisplay:10.37,2013-07-24 16:07:00,
2013-07-24 11:12:00,69.1,49.1,30.06,North,3,2.3,0.0,49,0.00,CLR,,0.00,0.0,WeatherDisplay:10.37,2013-07-24 16:12:00,
2013-07-24 11:17:00,68.7,48.8,30.06,WNW,283,5.8,0.0,49,0.00,CLR,,0.00,0.0,WeatherDisplay:10.37,2013-07-24 16:17:00,
2013-07-24 11:22:00,68.0,48.1,30.06,NNE,22,2.3,2.3,49,0.00,CLR,,0.00,0.0,WeatherDisplay:10.37,2013-07-24 16:22:00,
2013-07-24 11:27:00,68.4,48.5,30.06,NE,46,4.6,4.6,49,0.00,CLR,,0.00,0.0,WeatherDisplay:10.37,2013-07-24 16:27:00,
2013-07-24 11:32:00,69.3,49.3,30.06,SW,236,3.5,3.5,49,0.00,CLR,,0.00,0.0,WeatherDisplay:10.37,2013-07-24 16:32:00,
2013-07-24 11:37:00,69.8,49.2,30.06,South,181,4.6,4.6,48,0.00,CLR,,0.00,0.0,WeatherDisplay:10.37,2013-07-24 16:37:00,
2013-07-24 11:42:00,70.0,49.9,30.06,NNW,341,3.5,0.0,49,0.00,CLR,,0.00,0.0,WeatherDisplay:10.37,2013-07-24 16:42:00,
2013-07-24 11:47:00,70.2,50.1,30.06,NE,39,8.1,8.1,49,0.00,CLR,,0.00,0.0,WeatherDisplay:10.37,2013-07-24 16:47:00,
2013-07-24 11:52:00,68.9,48.9,30.06,East,100,3.5,3.5,49,0.00,SCT,,0.00,0.0,WeatherDisplay:10.37,2013-07-24 16:52:00,
2013-07-24 11:57:00,68.2,48.3,30.06,NE,49,5.8,0.0,49,0.00,SCT,,0.00,0.0,WeatherDisplay:10.37,2013-07-24 16:57:00,
2013-07-24 12:02:00,68.5,48.6,30.06,NNE,15,5.8,5.8,49,0.00,SCT,,0.00,0.0,WeatherDisplay:10.37,2013-07-24 17:02:00,
2013-07-24 12:07:00,69.3,49.3,30.06,WSW,248,3.5,3.5,49,0.00,SCT,,0.00,0.0,WeatherDisplay:10.37,2013-07-24 17:07:00,
2013-07-24 12:12:00,70.3,49.7,30.06,NE,48,9.2,9.2,48,0.00,SCT,,0.00,0.0,WeatherDisplay:10.37,2013-07-24 17:12:00,
2013-07-24 12:17:00,71.6,50.3,30.03,ENE,68,0.0,0.0,47,0.00,SCT,,0.00,0.0,WeatherDisplay:10.37,2013-07-24 17:17:00,
2013-07-24 12:22:00,72.3,51.0,30.03,North,349,3.5,3.5,47,0.00,SCT,,0.00,0.0,WeatherDisplay:10.37,2013-07-24 17:22:00,
2013-07-24 12:27:00,72.1,50.8,30.03,North,9,5.8,5.8,47,0.00,SCT,,0.00,0.0,WeatherDisplay:10.37,2013-07-24 17:27:00,
2013-07-24 12:32:00,71.4,49.6,30.03,SW,227,5.8,5.8,46,0.00,SCT,,0.00,0.0,WeatherDisplay:10.37,2013-07-24 17:32:00,
2013-07-24 12:37:00,71.4,50.1,30.03,SSE,168,2.3,0.0,47,0.00,SCT,,0.00,0.0,WeatherDisplay:10.37,2013-07-24 17:37:00,
2013-07-24 12:42:00,72.9,50.9,30.03,NNE,30,3.5,0.0,46,0.00,SCT,,0.00,0.0,WeatherDisplay:10.37,2013-07-24 17:42:00,
2013-07-24 12:47:00,73.9,51.8,30.03,North,0,0.0,0.0,46,0.00,SCT,,0.00,0.0,WeatherDisplay:10.37,2013-07-24 17:47:00,
2013-07-24 12:52:00,73.0,51.0,30.03,NE,42,4.6,4.6,46,0.00,SCT,,0.00,0.0,WeatherDisplay:10.37,2013-07-24 17:52:00,
2013-07-24 12:57:00,71.8,50.5,30.03,NW,318,0.0,0.0,47,0.00,SCT,,0.00,0.0,WeatherDisplay:10.37,2013-07-24 17:57:00,
2013-07-24 13:02:00,70.7,49.5,30.03,NNE,27,0.0,0.0,47,0.00,SCT,,0.00,0.0,WeatherDisplay:10.37,2013-07-24 18:02:00,
2013-07-24 13:07:00,70.0,48.8,30.03,North,0,5.8,5.8,47,0.00,SCT,,0.00,0.0,WeatherDisplay:10.37,2013-07-24 18:07:00,
2013-07-24 13:12:00,69.4,48.9,30.03,NE,34,5.8,5.8,48,0.00,SCT,,0.00,0.0,WeatherDisplay:10.37,2013-07-24 18:12:00,
2013-07-24 13:17:00,69.3,48.7,30.03,NNE,31,2.3,0.0,48,0.00,SCT,,0.00,0.0,WeatherDisplay:10.37,2013-07-24 18:17:00,
2013-07-24 13:22:00,69.3,48.7,30.03,NE,36,3.5,0.0,48,0.00,BKN,,0.00,0.0,WeatherDisplay:10.37,2013-07-24 18:22:00,
2013-07-24 13:27:00,69.1,48.6,30.03,NNE,33,4.6,4.6,48,0.00,BKN,,0.00,0.0,WeatherDisplay:10.37,2013-07-24 18:27:00,
2013-07-24 13:32:00,69.1,48.6,30.03,NNE,15,4.6,4.6,48,0.00,BKN,,0.00,0.0,WeatherDisplay:10.37,2013-07-24 18:32:00,
2013-07-24 13:37:00,69.1,48.6,30.03,NE,44,3.5,3.5,48,0.00,BKN,,0.00,0.0,WeatherDisplay:10.37,2013-07-24 18:37:00,
2013-07-24 13:42:00,69.4,48.9,30.03,North,357,3.5,0.0,48,0.00,BKN,,0.00,0.0,WeatherDisplay:10.37,2013-07-24 18:42:00,
2013-07-24 13:47:00,71.2,50.5,30.03,SW,216,2.3,0.0,48,0.00,BKN,,0.00,0.0,WeatherDisplay:10.37,2013-07-24 18:47:00,
2013-07-24 13:52:00,73.2,51.8,30.03,South,171,2.3,0.0,47,0.00,BKN,,0.00,0.0,WeatherDisplay:10.37,2013-07-24 18:52:00,
2013-07-24 13:57:00,75.0,52.8,30.03,South,184,3.5,3.5,46,0.00,BKN,,0.00,0.0,WeatherDisplay:10.37,2013-07-24 18:57:00,
2013-07-24 14:02:00,74.5,52.3,30.03,SW,228,4.6,0.0,46,0.00,BKN,,0.00,0.0,WeatherDisplay:10.37,2013-07-24 19:02:00,
2013-07-24 14:07:00,73.8,51.7,30.03,SW,221,2.3,0.0,46,0.00,BKN,,0.00,0.0,WeatherDisplay:10.37,2013-07-24 19:07:00,
2013-07-24 14:12:00,72.5,51.1,30.03,SSW,195,5.8,0.0,47,0.00,BKN,,0.00,0.0,WeatherDisplay:10.37,2013-07-24 19:12:00,
2013-07-24 14:17:00,71.4,50.1,30.03,SSW,195,0.0,0.0,47,0.00,BKN,,0.00,0.0,WeatherDisplay:10.37,2013-07-24 19:17:00,
2013-07-24 14:22:00,70.9,49.6,30.03,WSW,246,0.0,0.0,47,0.00,BKN,,0.00,0.0,WeatherDisplay:10.37,2013-07-24 19:22:00,
2013-07-24 14:27:00,70.3,49.1,30.03,SSW,196,3.5,3.5,47,0.00,BKN,,0.00,0.0,WeatherDisplay:10.37,2013-07-24 19:27:00,
2013-07-24 14:32:00,70.2,49.5,30.03,SSE,159,0.0,0.0,48,0.00,BKN,,0.00,0.0,WeatherDisplay:10.37,2013-07-24 19:32:00,
2013-07-24 14:37:00,69.8,49.2,30.03,South,175,2.3,0.0,48,0.00,BKN,,0.00,0.0,WeatherDisplay:10.37,2013-07-24 19:37:00,
2013-07-24 14:42:00,69.6,49.1,30.03,SW,234,5.8,0.0,48,0.00,BKN,,0.00,0.0,WeatherDisplay:10.37,2013-07-24 19:42:00,
2013-07-24 14:47:00,69.6,49.1,30.03,NNE,28,0.0,0.0,48,0.00,BKN,,0.00,0.0,WeatherDisplay:10.37,2013-07-24 19:47:00,
2013-07-24 14:52:00,69.8,49.2,30.03,NNE,28,0.0,0.0,48,0.00,BKN,,0.00,0.0,WeatherDisplay:10.37,2013-07-24 19:52:00,
2013-07-24 14:58:00,69.6,49.1,30.03,WSW,253,3.5,3.5,48,0.00,BKN,,0.00,0.0,WeatherDisplay:10.37,2013-07-24 19:58:00,
2013-07-24 15:03:00,69.8,49.2,30.00,SSW,206,0.0,0.0,48,0.00,OVC,,0.00,0.0,WeatherDisplay:10.37,2013-07-24 20:03:00,
2013-07-24 15:08:00,70.0,49.4,30.00,South,186,0.0,0.0,48,0.00,OVC,,0.00,0.0,WeatherDisplay:10.37,2013-07-24 20:08:00,
2013-07-24 15:13:00,70.0,49.4,30.00,South,186,0.0,0.0,48,0.00,OVC,,0.00,0.0,WeatherDisplay:10.37,2013-07-24 20:13:00,
2013-07-24 15:18:00,70.0,49.4,30.00,SW,224,0.0,0.0,48,0.00,OVC,,0.00,0.0,WeatherDisplay:10.37,2013-07-24 20:18:00,
2013-07-24 15:23:00,70.0,49.4,30.00,SW,216,3.5,3.5,48,0.00,OVC,,0.00,0.0,WeatherDisplay:10.37,2013-07-24 20:23:00,
2013-07-24 15:28:00,69.8,49.2,30.00,NE,41,3.5,0.0,48,0.00,OVC,,0.00,0.0,WeatherDisplay:10.37,2013-07-24 20:28:00,
2013-07-24 15:33:00,69.8,49.2,30.00,SW,214,4.6,4.6,48,0.00,OVC,,0.00,0.0,WeatherDisplay:10.37,2013-07-24 20:33:00,
2013-07-24 15:38:00,70.0,49.4,30.00,NNW,348,0.0,0.0,48,0.00,OVC,,0.00,0.0,WeatherDisplay:10.37,2013-07-24 20:38:00,
2013-07-24 15:43:00,69.6,49.1,30.00,SW,224,0.0,0.0,48,0.00,OVC,,0.00,0.0,WeatherDisplay:10.37,2013-07-24 20:43:00,
2013-07-24 15:48:00,69.8,49.2,30.00,WSW,247,0.0,0.0,48,0.00,OVC,,0.00,0.0,WeatherDisplay:10.37,2013-07-24 20:48:00,
2013-07-24 15:53:00,70.5,49.9,30.00,WSW,242,3.5,0.0,48,0.00,BKN,,0.00,0.0,WeatherDisplay:10.37,2013-07-24 20:53:00,
2013-07-24 15:58:00,71.2,50.5,30.00,SSW,199,6.9,6.9,48,0.00,BKN,,0.00,0.0,WeatherDisplay:10.37,2013-07-24 20:58:00,
2013-07-24 16:03:00,72.1,50.8,30.00,SSW,202,6.9,6.9,47,0.00,BKN,,0.00,0.0,WeatherDisplay:10.37,2013-07-24 21:03:00,
2013-07-24 16:08:00,72.9,51.4,30.00,WSW,239,5.8,5.8,47,0.00,BKN,,0.00,0.0,WeatherDisplay:10.37,2013-07-24 21:08:00,
2013-07-24 16:13:00,73.0,51.6,30.00,SSW,205,8.1,8.1,47,0.00,BKN,,0.00,0.0,WeatherDisplay:10.37,2013-07-24 21:13:00,
2013-07-24 16:18:00,73.4,51.9,30.00,SSE,154,8.1,8.1,47,0.00,BKN,,0.00,0.0,WeatherDisplay:10.37,2013-07-24 21:18:00,
2013-07-24 16:23:00,73.6,51.5,30.00,SW,224,5.8,5.8,46,0.00,BKN,,0.00,0.0,WeatherDisplay:10.37,2013-07-24 21:23:00,
2013-07-24 16:28:00,73.8,51.7,30.00,SSW,204,6.9,6.9,46,0.00,BKN,,0.00,0.0,WeatherDisplay:10.37,2013-07-24 21:28:00,
2013-07-24 16:33:00,73.6,51.5,30.00,SSW,213,4.6,5.4,46,0.00,BKN,,0.00,0.0,WeatherDisplay:10.37,2013-07-24 21:33:00,
2013-07-24 16:38:00,73.6,51.5,30.00,SSE,164,4.6,0.0,46,0.00,BKN,,0.00,0.0,WeatherDisplay:10.37,2013-07-24 21:38:00,
2013-07-24 16:43:00,73.4,51.4,30.00,SE,145,5.8,5.8,46,0.00,BKN,,0.00,0.0,WeatherDisplay:10.37,2013-07-24 21:43:00,
2013-07-24 16:48:00,73.2,51.2,30.00,SSW,204,5.8,0.0,46,0.00,BKN,,0.00,0.0,WeatherDisplay:10.37,2013-07-24 21:48:00,
2013-07-24 16:53:00,72.7,50.7,30.00,SW,236,4.6,4.6,46,0.00,SCT,,0.00,0.0,WeatherDisplay:10.37,2013-07-24 21:53:00,
2013-07-24 16:58:00,71.8,50.5,30.00,SSW,199,5.8,5.8,47,0.00,SCT,,0.00,0.0,WeatherDisplay:10.37,2013-07-24 21:58:00,
2013-07-24 17:03:00,71.2,50.0,30.00,SW,225,4.6,4.6,47,0.00,SCT,,0.00,0.0,WeatherDisplay:10.37,2013-07-24 22:03:00,
2013-07-24 17:08:00,71.1,49.8,30.00,SSW,195,4.6,0.0,47,0.00,SCT,,0.00,0.0,WeatherDisplay:10.37,2013-07-24 22:08:00,
2013-07-24 17:13:00,71.2,50.0,30.00,SSW,194,5.8,5.8,47,0.00,SCT,,0.00,0.0,WeatherDisplay:10.37,2013-07-24 22:13:00,
2013-07-24 17:18:00,71.4,50.1,30.00,SW,227,0.0,0.0,47,0.00,SCT,,0.00,0.0,WeatherDisplay:10.37,2013-07-24 22:18:00,
2013-07-24 17:23:00,71.2,50.0,30.00,SSW,200,5.8,5.8,47,0.00,SCT,,0.00,0.0,WeatherDisplay:10.37,2013-07-24 22:23:00,
2013-07-24 17:28:00,71.4,50.1,30.00,SSW,207,3.5,0.0,47,0.00,SCT,,0.00,0.0,WeatherDisplay:10.37,2013-07-24 22:28:00,
2013-07-24 17:33:00,71.4,50.1,30.00,WSW,244,3.5,3.5,47,0.00,BKN,,0.00,0.0,WeatherDisplay:10.37,2013-07-24 22:33:00,
2013-07-24 17:38:00,71.6,50.3,30.00,South,171,2.3,0.0,47,0.00,BKN,,0.00,0.0,WeatherDisplay:10.37,2013-07-24 22:38:00,
2013-07-24 17:43:00,72.0,50.6,30.00,SSW,201,4.6,4.6,47,0.00,BKN,,0.00,0.0,WeatherDisplay:10.37,2013-07-24 22:43:00,
2013-07-24 17:48:00,72.1,50.8,30.00,SW,236,5.8,5.8,47,0.00,BKN,,0.00,0.0,WeatherDisplay:10.37,2013-07-24 22:48:00,
2013-07-24 17:53:00,72.7,51.3,30.00,SSW,208,6.9,6.9,47,0.00,BKN,,0.00,0.0,WeatherDisplay:10.37,2013-07-24 22:53:00,
2013-07-24 17:58:00,72.9,51.4,30.00,South,187,3.5,0.0,47,0.00,BKN,,0.00,0.0,WeatherDisplay:10.37,2013-07-24 22:58:00,
2013-07-24 18:03:00,72.3,51.0,30.00,SW,231,3.5,0.0,47,0.00,BKN,,0.00,0.0,WeatherDisplay:10.37,2013-07-24 23:03:00,
2013-07-24 18:08:00,72.5,51.1,30.00,South,169,5.8,0.0,47,0.00,BKN,,0.00,0.0,WeatherDisplay:10.37,2013-07-24 23:08:00,
2013-07-24 18:13:00,72.9,51.4,30.00,SSW,196,3.5,0.0,47,0.00,BKN,,0.00,0.0,WeatherDisplay:10.37,2013-07-24 23:13:00,
2013-07-24 18:18:00,73.4,51.4,29.97,SSW,202,3.5,3.5,46,0.00,BKN,,0.00,0.0,WeatherDisplay:10.37,2013-07-24 23:18:00,
2013-07-24 18:23:00,73.8,51.7,29.97,SSW,199,4.6,4.6,46,0.00,BKN,,0.00,0.0,WeatherDisplay:10.37,2013-07-24 23:23:00,
2013-07-24 18:28:00,74.3,52.2,29.97,SSW,196,5.8,5.8,46,0.00,BKN,,0.00,0.0,WeatherDisplay:10.37,2013-07-24 23:28:00,
2013-07-24 18:33:00,74.5,52.3,29.97,SW,226,5.8,5.8,46,0.00,SCT,,0.00,0.0,WeatherDisplay:10.37,2013-07-24 23:33:00,
2013-07-24 18:38:00,74.5,52.3,29.97,WSW,245,5.8,5.8,46,0.00,SCT,,0.00,0.0,WeatherDisplay:10.37,2013-07-24 23:38:00,
2013-07-24 18:43:00,74.1,52.0,29.97,WSW,253,5.8,5.8,46,0.00,SCT,,0.00,0.0,WeatherDisplay:10.37,2013-07-24 23:43:00,
2013-07-24 18:48:00,73.6,51.5,29.97,South,188,5.8,5.8,46,0.00,SCT,,0.00,0.0,WeatherDisplay:10.37,2013-07-24 23:48:00,
2013-07-24 18:53:00,72.7,51.3,29.97,NNW,327,6.9,6.9,47,0.00,SCT,,0.00,0.0,WeatherDisplay:10.37,2013-07-24 23:53:00,
2013-07-24 18:58:00,71.8,50.5,29.97,South,174,3.5,0.0,47,0.00,SCT,,0.00,0.0,WeatherDisplay:10.37,2013-07-24 23:58:00,
2013-07-24 19:03:00,71.1,50.4,29.97,SW,236,3.5,0.0,48,0.00,SCT,,0.00,0.0,WeatherDisplay:10.37,2013-07-25 00:03:00,
2013-07-24 19:08:00,70.5,49.9,29.97,SW,235,5.8,5.8,48,0.00,SCT,,0.00,0.0,WeatherDisplay:10.37,2013-07-25 00:08:00,
2013-07-24 19:13:00,70.0,49.4,29.97,WSW,243,4.6,4.6,48,0.00,SCT,,0.00,0.0,WeatherDisplay:10.37,2013-07-25 00:13:00,
2013-07-24 19:18:00,69.4,50.0,29.97,South,177,0.0,0.0,50,0.00,SCT,,0.00,0.0,WeatherDisplay:10.37,2013-07-25 00:18:00,
2013-07-24 19:23:00,69.1,50.2,29.97,SSW,205,0.0,0.0,51,0.00,SCT,,0.00,0.0,WeatherDisplay:10.37,2013-07-25 00:23:00,
2013-07-24 19:28:00,68.5,50.2,29.97,SW,232,2.3,0.0,52,0.00,SCT,,0.00,0.0,WeatherDisplay:10.37,2013-07-25 00:28:00,
2013-07-24 19:33:00,68.2,49.9,29.97,SSW,201,0.0,0.0,52,0.00,SCT,,0.00,0.0,WeatherDisplay:10.37,2013-07-25 00:33:00,
2013-07-24 19:38:00,67.8,50.6,29.97,SSW,202,0.0,0.0,54,0.00,SCT,,0.00,0.0,WeatherDisplay:10.37,2013-07-25 00:38:00,
2013-07-24 19:43:00,67.5,50.7,29.97,SSW,202,0.0,0.0,55,0.00,SCT,,0.00,0.0,WeatherDisplay:10.37,2013-07-25 00:43:00,
2013-07-24 19:48:00,67.1,50.9,29.97,SSW,202,0.0,0.0,56,0.00,SCT,,0.00,0.0,WeatherDisplay:10.37,2013-07-25 00:48:00,
2013-07-24 19:53:00,66.9,51.2,29.97,SW,214,0.0,0.0,57,0.00,SCT,,0.00,0.0,WeatherDisplay:10.37,2013-07-25 00:53:00,
2013-07-24 19:58:00,66.7,51.0,29.97,South,169,3.5,3.5,57,0.00,SCT,,0.00,0.0,WeatherDisplay:10.37,2013-07-25 00:58:00,
2013-07-24 20:03:00,66.4,50.7,29.97,SW,219,4.6,4.6,57,0.00,OVC,,0.00,0.0,WeatherDisplay:10.37,2013-07-25 01:03:00,
2013-07-24 20:08:00,66.2,51.0,29.97,SW,215,0.0,0.0,58,0.00,OVC,,0.00,0.0,WeatherDisplay:10.37,2013-07-25 01:08:00,
2013-07-24 20:13:00,65.8,50.6,29.97,SW,215,0.0,0.0,58,0.00,OVC,,0.00,0.0,WeatherDisplay:10.37,2013-07-25 01:13:00,
2013-07-24 20:18:00,65.5,50.8,29.97,SW,215,0.0,0.0,59,0.00,OVC,,0.00,0.0,WeatherDisplay:10.37,2013-07-25 01:18:00,
2013-07-24 20:23:00,65.1,50.4,29.97,SW,215,0.0,0.0,59,0.00,OVC,,0.00,0.0,WeatherDisplay:10.37,2013-07-25 01:23:00,
2013-07-24 20:28:00,64.8,50.1,29.97,SSW,200,0.0,0.0,59,0.00,OVC,,0.00,0.0,WeatherDisplay:10.37,2013-07-25 01:28:00,
2013-07-24 20:33:00,64.6,49.9,29.97,SSW,200,0.0,0.0,59,0.00,OVC,,0.00,0.0,WeatherDisplay:10.37,2013-07-25 01:33:00,
2013-07-24 20:38:00,64.4,50.2,29.97,SSW,200,0.0,0.0,60,0.00,OVC,,0.00,0.0,WeatherDisplay:10.37,2013-07-25 01:38:00,
2013-07-24 20:43:00,64.2,50.0,29.97,SSW,200,0.0,0.0,60,0.00,OVC,,0.00,0.0,WeatherDisplay:10.37,2013-07-25 01:43:00,
2013-07-24 20:48:00,64.0,49.9,29.97,SSW,200,0.0,0.0,60,0.00,OVC,,0.00,0.0,WeatherDisplay:10.37,2013-07-25 01:48:00,
2013-07-24 20:53:00,63.9,50.1,29.97,SSW,200,0.0,0.0,61,0.00,OVC,,0.00,0.0,WeatherDisplay:10.37,2013-07-25 01:53:00,
2013-07-24 20:58:00,63.7,50.0,29.97,SSW,200,0.0,0.0,61,0.00,OVC,,0.00,0.0,WeatherDisplay:10.37,2013-07-25 01:58:00,
2013-07-24 21:03:00,63.7,50.0,29.97,SSW,200,0.0,0.0,61,0.00,OVC,,0.00,0.0,WeatherDisplay:10.37,2013-07-25 02:03:00,
2013-07-24 21:08:00,63.7,50.0,29.97,SSW,200,0.0,0.0,61,0.00,OVC,,0.00,0.0,WeatherDisplay:10.37,2013-07-25 02:08:00,
2013-07-24 21:13:00,63.5,50.2,29.97,SSW,200,0.0,0.0,62,0.00,OVC,,0.00,0.0,WeatherDisplay:10.37,2013-07-25 02:13:00,
2013-07-24 21:18:00,63.5,50.2,29.97,South,186,0.0,0.0,62,0.00,OVC,,0.00,0.0,WeatherDisplay:10.37,2013-07-25 02:18:00,
2013-07-24 21:23:00,63.7,50.4,29.97,SSW,194,2.3,0.0,62,0.00,OVC,,0.00,0.0,WeatherDisplay:10.37,2013-07-25 02:23:00,
2013-07-24 23:23:00,61.5,50.9,30.00,SSW,200,0.0,0.0,68,0.00,OVC,,0.00,0.0,WeatherDisplay:10.37,2013-07-25 04:23:00,
2013-07-24 23:24:00,61.5,50.9,30.00,SSW,200,0.0,0.0,68,0.00,OVC,,0.00,0.0,WeatherDisplay:10.37,2013-07-25 04:24:00,
2013-07-24 23:29:00,61.2,50.9,30.00,SW,234,0.0,0.0,69,0.00,OVC,,0.00,0.0,WeatherDisplay:10.37,2013-07-25 04:29:00,
2013-07-24 23:34:00,61.0,50.7,30.00,SW,234,0.0,0.0,69,0.00,OVC,,0.00,0.0,WeatherDisplay:10.37,2013-07-25 04:34:00,
2013-07-24 23:39:00,60.6,50.4,30.00,SW,234,0.0,0.0,69,0.00,OVC,,0.00,0.0,WeatherDisplay:10.37,2013-07-25 04:39:00,
2013-07-24 23:44:00,60.3,50.4,30.00,SW,234,0.0,0.0,70,0.00,OVC,,0.00,0.0,WeatherDisplay:10.37,2013-07-25 04:44:00,
2013-07-24 23:49:00,59.7,50.3,30.00,SW,234,0.0,0.0,71,0.00,OVC,,0.00,0.0,WeatherDisplay:10.37,2013-07-25 04:49:00,
2013-07-24 23:54:00,59.4,50.3,30.00,SW,234,0.0,0.0,72,0.00,OVC,,0.00,0.0,WeatherDisplay:10.37,2013-07-25 04:54:00,
2013-07-24 23:59:00,58.8,49.8,30.00,SW,234,0.0,0.0,72,0.00,OVC,,0.00,0.0,WeatherDisplay:10.37,2013-07-25 04:59:00,